createdAt,value
2022-10-28T00:02:46.973Z,60.56
2022-10-28T00:05:48.654Z,60.65
2022-10-28T00:08:50.980Z,60.45
2022-10-28T00:11:52.497Z,60.46
2022-10-28T00:14:54.064Z,60.90
2022-10-28T00:17:55.978Z,60.68
2022-10-28T00:21:02.968Z,60.50
2022-10-28T00:24:06.555Z,60.77
2022-10-28T00:27:08.093Z,60.64
2022-10-28T00:30:10.084Z,60.78
2022-10-28T00:33:11.632Z,60.88
2022-10-28T00:36:21.257Z,60.96
2022-10-28T00:39:25.097Z,60.65
2022-10-28T00:42:26.641Z,60.75
2022-10-28T00:45:28.350Z,61.04
2022-10-28T00:48:30.253Z,61.00
2022-10-28T00:51:35.684Z,60.99
2022-10-28T00:54:38.460Z,60.76
2022-10-28T00:57:42.407Z,60.85
2022-10-28T01:00:43.983Z,61.16
2022-10-28T01:03:45.544Z,60.85
2022-10-28T01:06:48.065Z,61.11
2022-10-28T01:09:50.336Z,61.08
2022-10-28T01:13:12.161Z,61.17
2022-10-28T01:16:55.275Z,61.06
2022-10-28T01:20:15.608Z,61.18
2022-10-28T01:23:50.760Z,60.96
2022-10-28T01:27:13.866Z,61.23
2022-10-28T01:30:23.361Z,60.93
2022-10-28T01:33:32.071Z,61.24
2022-10-28T01:36:54.008Z,61.08
2022-10-28T01:40:08.901Z,60.75
2022-10-28T01:43:10.379Z,61.25
2022-10-28T01:46:17.577Z,60.81
2022-10-28T01:49:28.008Z,60.92
2022-10-28T01:52:32.063Z,61.18
2022-10-28T01:55:38.248Z,60.87
2022-10-28T01:58:41.511Z,60.98
2022-10-28T02:01:43.210Z,61.13
2022-10-28T02:04:44.890Z,61.09
2022-10-28T02:07:47.636Z,61.00
2022-10-28T02:11:01.896Z,61.39
2022-10-28T02:14:21.672Z,61.25
2022-10-28T02:17:51.084Z,61.27
2022-10-28T02:21:18.421Z,61.19
2022-10-28T02:24:26.467Z,60.95
2022-10-28T02:27:31.456Z,61.21
2022-10-28T02:30:41.529Z,61.35
2022-10-28T02:33:47.188Z,61.28
2022-10-28T02:36:54.590Z,61.34
2022-10-28T02:40:00.055Z,61.38
2022-10-28T02:43:06.686Z,61.51
2022-10-28T02:46:10.023Z,61.73
2022-10-28T02:49:14.179Z,61.68
2022-10-28T02:52:17.861Z,61.38
2022-10-28T02:55:22.715Z,61.39
2022-10-28T02:58:24.301Z,61.46
2022-10-28T03:01:26.145Z,61.63
2022-10-28T03:04:27.756Z,61.44
2022-10-28T03:07:29.288Z,61.61
2022-10-28T03:10:30.822Z,61.58
2022-10-28T03:13:32.320Z,61.39
2022-10-28T03:16:34.020Z,61.71
2022-10-28T03:19:35.536Z,61.74
2022-10-28T03:22:37.328Z,61.68
2022-10-28T03:25:38.945Z,61.55
2022-10-28T03:28:40.509Z,61.71
2022-10-28T03:31:42.114Z,61.35
2022-10-28T03:34:44.931Z,61.52
2022-10-28T03:37:46.480Z,61.75
2022-10-28T03:40:49.119Z,61.83
2022-10-28T03:43:50.644Z,61.71
2022-10-28T03:46:52.210Z,61.93
2022-10-28T03:49:53.779Z,61.94
2022-10-28T03:52:55.317Z,61.65
2022-10-28T03:55:59.292Z,61.59
2022-10-28T03:59:00.798Z,61.46
2022-10-28T04:02:02.416Z,61.55
2022-10-28T04:05:04.272Z,61.68
2022-10-28T04:08:05.867Z,61.95
2022-10-28T04:11:07.426Z,61.92
2022-10-28T04:14:08.992Z,61.69
2022-10-28T04:17:10.549Z,61.89
2022-10-28T04:20:12.255Z,61.82
2022-10-28T04:23:16.123Z,61.86
2022-10-28T04:26:17.683Z,61.90
2022-10-28T04:29:19.620Z,62.13
2022-10-28T04:32:21.125Z,62.05
2022-10-28T04:35:23.513Z,61.63
2022-10-28T04:41:31.604Z,61.93
2022-10-28T04:44:33.133Z,61.96
2022-10-28T04:47:34.772Z,61.78
2022-10-28T04:50:36.411Z,61.80
2022-10-28T04:53:37.921Z,61.89
2022-10-28T04:56:39.488Z,62.11
2022-10-28T04:59:41.099Z,61.89
2022-10-28T05:02:45.998Z,62.01
2022-10-28T05:05:48.608Z,61.91
2022-10-28T05:08:50.392Z,61.99
2022-10-28T05:11:52.076Z,61.84
2022-10-28T05:14:53.651Z,62.16
2022-10-28T05:17:55.515Z,62.15
2022-10-28T05:20:57.359Z,62.01
2022-10-28T05:23:58.932Z,62.02
2022-10-28T05:27:00.922Z,61.93
2022-10-28T05:30:02.516Z,61.87
2022-10-28T05:33:04.660Z,62.05
2022-10-28T05:36:06.590Z,61.92
2022-10-28T05:39:08.141Z,61.94
2022-10-28T05:42:09.701Z,62.22
2022-10-28T05:45:11.967Z,61.98
2022-10-28T05:48:13.466Z,62.03
2022-10-28T05:54:07.329Z,61.85
2022-10-28T05:57:20.681Z,61.94
2022-10-28T06:00:24.988Z,61.94
2022-10-28T06:03:30.146Z,61.90
2022-10-28T06:06:33.426Z,61.89
2022-10-28T06:09:35.009Z,61.85
2022-10-28T06:12:35.259Z,61.96
2022-10-28T06:15:36.802Z,61.88
2022-10-28T06:18:38.364Z,62.09
2022-10-28T06:21:39.929Z,61.83
2022-10-28T06:24:41.475Z,62.25
2022-10-28T06:27:43.005Z,61.90
2022-10-28T06:30:44.557Z,61.88
2022-10-28T06:33:46.128Z,61.61
2022-10-28T06:36:47.783Z,61.88
2022-10-28T06:39:51.429Z,61.91
2022-10-28T06:43:00.680Z,61.78
2022-10-28T06:46:04.043Z,61.62
2022-10-28T06:49:09.061Z,61.84
2022-10-28T06:52:10.644Z,61.97
2022-10-28T06:55:12.175Z,61.78
2022-10-28T06:58:13.696Z,61.73
2022-10-28T07:01:15.309Z,62.04
2022-10-28T07:04:16.864Z,61.83
2022-10-28T07:07:18.463Z,62.04
2022-10-28T07:10:19.967Z,62.16
2022-10-28T07:13:21.518Z,61.88
2022-10-28T07:16:23.049Z,62.21
2022-10-28T07:19:24.582Z,62.20
2022-10-28T07:22:26.283Z,61.96
2022-10-28T07:25:31.187Z,62.15
2022-10-28T07:28:32.716Z,61.76
2022-10-28T07:31:34.290Z,62.31
2022-10-28T07:34:35.876Z,61.92
2022-10-28T07:37:39.060Z,62.20
2022-10-28T07:40:40.801Z,62.06
2022-10-28T07:43:42.346Z,62.20
2022-10-28T07:46:43.890Z,62.30
2022-10-28T07:49:45.438Z,62.40
2022-10-28T07:52:46.990Z,62.46
2022-10-28T07:55:58.440Z,62.29
2022-10-28T07:59:00.750Z,62.30
2022-10-28T08:02:02.980Z,62.30
2022-10-28T08:05:05.159Z,61.92
2022-10-28T08:08:06.847Z,62.00
2022-10-28T08:11:13.161Z,62.35
2022-10-28T08:14:14.888Z,62.23
2022-10-28T08:17:16.583Z,62.26
2022-10-28T08:20:18.174Z,62.20
2022-10-28T08:23:19.664Z,61.94
2022-10-28T08:26:22.121Z,61.97
2022-10-28T08:29:28.994Z,61.93
2022-10-28T08:32:31.659Z,61.96
2022-10-28T08:35:35.584Z,61.98
2022-10-28T08:38:39.564Z,61.76
2022-10-28T08:42:08.002Z,61.75
2022-10-28T08:45:18.917Z,61.91
2022-10-28T08:48:31.631Z,62.05
2022-10-28T08:51:45.967Z,61.97
2022-10-28T08:55:16.926Z,61.86
2022-10-28T08:58:30.900Z,61.85
2022-10-28T09:01:45.210Z,62.00
2022-10-28T09:04:47.097Z,62.05
2022-10-28T09:07:49.467Z,61.96
2022-10-28T09:10:53.760Z,61.75
2022-10-28T09:14:10.282Z,61.67
2022-10-28T09:17:14.642Z,61.72
2022-10-28T09:20:46.299Z,61.62
2022-10-28T09:23:56.573Z,61.53
2022-10-28T09:27:07.447Z,61.37
2022-10-28T09:30:31.111Z,61.44
2022-10-28T09:33:35.590Z,61.38
2022-10-28T09:36:42.832Z,61.19
2022-10-28T09:39:49.661Z,61.23
2022-10-28T09:43:16.845Z,61.30
2022-10-28T09:46:18.993Z,61.16
2022-10-28T09:49:33.425Z,61.26
2022-10-28T09:52:51.092Z,61.17
2022-10-28T09:55:52.943Z,60.88
2022-10-28T09:58:57.691Z,60.72
2022-10-28T10:01:59.370Z,60.78
2022-10-28T10:05:02.639Z,60.71
2022-10-28T10:08:05.527Z,60.56
2022-10-28T10:11:17.693Z,60.52
2022-10-28T10:14:25.641Z,60.75
2022-10-28T10:17:34.592Z,60.56
2022-10-28T10:20:51.113Z,60.27
2022-10-28T10:23:52.664Z,60.07
2022-10-28T10:26:54.521Z,59.93
2022-10-28T10:29:58.051Z,60.24
2022-10-28T10:33:00.154Z,59.79
2022-10-28T10:36:10.770Z,59.85
2022-10-28T10:39:23.242Z,59.95
2022-10-28T10:42:25.579Z,60.07
2022-10-28T10:45:27.684Z,59.87
2022-10-28T10:48:32.312Z,59.65
2022-10-28T10:51:36.277Z,59.61
2022-10-28T10:54:42.368Z,59.96
2022-10-28T10:57:47.755Z,60.07
2022-10-28T11:00:52.283Z,60.08
2022-10-28T11:04:05.996Z,59.85
2022-10-28T11:07:15.851Z,59.73
2022-10-28T11:10:27.114Z,59.76
2022-10-28T11:13:30.051Z,59.61
2022-10-28T11:16:31.709Z,59.77
2022-10-28T11:19:37.646Z,59.57
2022-10-28T11:22:45.303Z,59.36
2022-10-28T11:25:54.264Z,59.15
2022-10-28T11:29:14.778Z,59.55
2022-10-28T11:32:25.410Z,59.10
2022-10-28T11:35:58.879Z,59.55
2022-10-28T11:39:25.968Z,59.41
2022-10-28T11:42:53.641Z,59.43
2022-10-28T11:46:19.713Z,59.37
2022-10-28T11:49:45.898Z,59.17
2022-10-28T11:53:06.846Z,59.12
2022-10-28T11:56:08.710Z,58.70
2022-10-28T11:59:25.311Z,58.65
2022-10-28T12:03:03.695Z,58.48
2022-10-28T12:06:37.886Z,58.85
2022-10-28T12:09:49.332Z,58.71
2022-10-28T12:13:03.913Z,58.49
2022-10-28T12:16:17.450Z,58.43
2022-10-28T12:19:38.624Z,58.51
2022-10-28T12:22:48.131Z,58.43
2022-10-28T12:25:54.875Z,58.22
2022-10-28T12:29:01.262Z,58.44
2022-10-28T12:32:18.142Z,58.59
2022-10-28T12:35:31.516Z,58.49
2022-10-28T12:38:58.667Z,58.55
2022-10-28T12:42:12.196Z,58.40
2022-10-28T12:45:17.804Z,58.71
2022-10-28T12:48:19.308Z,58.58
2022-10-28T12:51:30.559Z,58.72
2022-10-28T12:54:53.646Z,58.36
2022-10-28T12:58:22.257Z,58.58
2022-10-28T13:01:27.551Z,58.46
2022-10-28T13:04:29.736Z,58.62
2022-10-28T13:07:58.768Z,58.50
2022-10-28T13:11:15.829Z,58.86
2022-10-28T13:14:55.134Z,58.38
2022-10-28T13:18:24.971Z,58.79
2022-10-28T13:22:03.415Z,58.53
2022-10-28T13:25:45.865Z,58.37
2022-10-28T13:28:54.156Z,58.37
2022-10-28T13:31:56.366Z,58.31
2022-10-28T13:34:59.687Z,58.54
2022-10-28T13:38:02.679Z,58.70
2022-10-28T13:41:04.167Z,58.39
2022-10-28T13:44:08.739Z,58.27
2022-10-28T13:47:12.982Z,58.31
2022-10-28T13:50:21.632Z,58.12
2022-10-28T13:53:28.857Z,58.56
2022-10-28T13:56:38.555Z,58.36
2022-10-28T14:00:22.283Z,58.25
2022-10-28T14:03:27.995Z,58.39
2022-10-28T14:06:35.124Z,58.32
2022-10-28T14:09:41.120Z,58.45
2022-10-28T14:12:46.139Z,58.23
2022-10-28T14:15:49.572Z,58.14
2022-10-28T14:19:10.681Z,58.04
2022-10-28T14:22:12.266Z,58.05
2022-10-28T14:25:58.243Z,58.09
2022-10-28T14:28:59.877Z,58.20
2022-10-28T14:32:33.516Z,58.33
2022-10-28T14:35:44.283Z,57.99
2022-10-28T14:39:07.243Z,58.13
2022-10-28T14:42:47.782Z,58.30
2022-10-28T14:46:13.757Z,58.02
2022-10-28T14:49:27.392Z,58.22
2022-10-28T14:52:31.441Z,58.03
2022-10-28T14:55:35.069Z,58.06
2022-10-28T14:58:42.252Z,58.17
2022-10-28T15:02:01.216Z,58.10
2022-10-28T15:05:15.198Z,58.46
2022-10-28T15:08:17.920Z,58.37
2022-10-28T15:11:20.246Z,58.07
2022-10-28T15:14:26.191Z,58.11
2022-10-28T15:17:31.071Z,58.50
2022-10-28T15:20:35.488Z,58.16
2022-10-28T15:23:37.126Z,58.13
2022-10-28T15:26:38.865Z,58.20
2022-10-28T15:29:42.588Z,58.55
2022-10-28T15:32:44.104Z,58.44
2022-10-28T15:35:47.250Z,58.14
2022-10-28T15:38:50.843Z,58.29
2022-10-28T15:41:56.412Z,58.23
2022-10-28T15:44:59.040Z,58.21
2022-10-28T15:48:02.122Z,58.19
2022-10-28T15:51:12.928Z,58.12
2022-10-28T15:54:20.566Z,58.39
2022-10-28T15:57:30.611Z,58.18
2022-10-28T16:00:34.063Z,58.47
2022-10-28T16:03:48.063Z,57.93
2022-10-28T16:06:55.678Z,58.05
2022-10-28T16:09:57.882Z,58.37
2022-10-28T16:12:59.879Z,58.28
2022-10-28T16:16:09.659Z,58.11
2022-10-28T16:19:27.432Z,58.23
2022-10-28T16:22:31.198Z,58.14
2022-10-28T16:25:32.739Z,58.12
2022-10-28T16:28:34.347Z,58.00
2022-10-28T16:31:35.948Z,58.16
2022-10-28T16:34:37.490Z,58.15
2022-10-28T16:37:44.477Z,57.80
2022-10-28T16:40:51.971Z,57.85
2022-10-28T16:43:56.000Z,58.00
2022-10-28T16:46:57.684Z,57.93
2022-10-28T16:49:59.397Z,57.90
2022-10-28T16:53:00.967Z,57.69
2022-10-28T16:56:02.614Z,57.96
2022-10-28T16:59:04.299Z,57.70
2022-10-28T17:02:33.128Z,57.55
2022-10-28T17:05:34.992Z,57.87
2022-10-28T17:09:01.219Z,57.59
2022-10-28T17:11:58.132Z,57.78
2022-10-28T17:15:01.068Z,57.78
2022-10-28T17:18:03.040Z,57.54
2022-10-28T17:21:04.675Z,57.97
2022-10-28T17:24:06.692Z,57.88
2022-10-28T17:27:08.579Z,57.77
2022-10-28T17:30:10.767Z,57.91
2022-10-28T17:33:12.359Z,57.74
2022-10-28T17:36:13.928Z,57.91
2022-10-28T17:39:18.622Z,57.41
2022-10-28T17:42:22.370Z,57.85
2022-10-28T17:45:23.911Z,57.47
2022-10-28T17:48:25.441Z,57.43
2022-10-28T17:51:27.599Z,57.54
2022-10-28T17:54:29.163Z,57.51
2022-10-28T17:57:31.008Z,57.71
2022-10-28T18:00:32.516Z,57.44
2022-10-28T18:03:38.374Z,57.92
2022-10-28T18:06:40.095Z,57.50
2022-10-28T18:09:42.224Z,57.77
2022-10-28T18:12:43.764Z,57.76
2022-10-28T18:15:45.827Z,57.73
2022-10-28T18:18:47.416Z,57.62
2022-10-28T18:21:49.329Z,57.46
2022-10-28T18:24:50.900Z,57.29
2022-10-28T18:27:52.579Z,57.36
2022-10-28T18:30:54.076Z,57.29
2022-10-28T18:33:56.617Z,57.67
2022-10-28T18:36:58.196Z,57.26
2022-10-28T18:39:59.804Z,57.32
2022-10-28T18:43:01.320Z,57.59
2022-10-28T18:46:02.909Z,57.39
2022-10-28T18:49:05.519Z,57.22
2022-10-28T18:52:07.114Z,57.31
2022-10-28T18:55:09.013Z,57.58
2022-10-28T18:58:14.373Z,57.63
2022-10-28T19:01:18.663Z,57.19
2022-10-28T19:04:20.255Z,57.55
2022-10-28T19:07:21.754Z,57.24
2022-10-28T19:10:23.323Z,57.35
2022-10-28T19:13:25.156Z,57.26
2022-10-28T19:16:28.047Z,57.39
2022-10-28T19:19:29.614Z,57.26
2022-10-28T19:22:32.248Z,57.63
2022-10-28T19:25:33.881Z,57.39
2022-10-28T19:28:44.063Z,57.72
2022-10-28T19:31:45.722Z,57.63
2022-10-28T19:34:47.262Z,57.64
2022-10-28T19:37:52.468Z,57.35
2022-10-28T19:40:53.977Z,57.22
2022-10-28T19:43:58.478Z,57.36
2022-10-28T19:47:00.573Z,57.44
2022-10-28T19:50:02.084Z,57.50
2022-10-28T19:53:03.644Z,57.33
2022-10-28T19:56:05.366Z,57.45
2022-10-28T19:59:07.346Z,57.64
2022-10-28T20:02:11.718Z,57.32
2022-10-28T20:05:13.482Z,57.76
2022-10-28T20:08:17.195Z,57.45
2022-10-28T20:11:24.942Z,57.30
2022-10-28T20:14:28.158Z,57.76
2022-10-28T20:17:29.774Z,57.60
2022-10-28T20:20:31.306Z,57.52
2022-10-28T20:23:35.897Z,57.52
2022-10-28T20:26:38.912Z,57.74
2022-10-28T20:29:40.775Z,57.55
2022-10-28T20:32:42.319Z,57.47
2022-10-28T20:35:43.846Z,57.31
2022-10-28T20:38:45.371Z,57.83
2022-10-28T20:41:48.479Z,57.63
2022-10-28T20:44:50.014Z,58.00
2022-10-28T20:47:52.910Z,57.91
2022-10-28T20:50:59.965Z,57.44
2022-10-28T20:54:02.142Z,57.54
2022-10-28T20:57:03.798Z,57.81
2022-10-28T21:00:08.090Z,57.73
2022-10-28T21:03:10.895Z,57.79
2022-10-28T21:06:15.409Z,57.54
2022-10-28T21:09:17.243Z,57.43
2022-10-28T21:12:18.749Z,57.49
2022-10-28T21:15:20.291Z,57.71
2022-10-28T21:18:21.886Z,57.73
2022-10-28T21:21:24.297Z,57.87
2022-10-28T21:24:25.861Z,57.74
2022-10-28T21:27:27.599Z,57.70
2022-10-28T21:30:29.155Z,57.75
2022-10-28T21:33:31.397Z,57.78
2022-10-28T21:36:32.922Z,57.73
2022-10-28T21:39:35.923Z,58.00
2022-10-28T21:42:37.471Z,57.86
2022-10-28T21:45:38.984Z,57.84
2022-10-28T21:48:40.843Z,58.01
2022-10-28T21:51:42.427Z,57.91
2022-10-28T21:54:44.384Z,57.86
2022-10-28T21:57:45.869Z,57.72
2022-10-28T22:00:47.472Z,57.77
2022-10-28T22:03:50.071Z,57.86
2022-10-28T22:06:51.638Z,57.79
2022-10-28T22:09:53.163Z,57.67
2022-10-28T22:12:55.461Z,57.62
2022-10-28T22:16:08.336Z,57.62
2022-10-28T22:19:13.878Z,57.69
2022-10-28T22:22:15.433Z,57.65
2022-10-28T22:25:16.970Z,57.92
2022-10-28T22:28:18.497Z,57.80
2022-10-28T22:31:26.053Z,57.91
2022-10-28T22:34:27.568Z,58.11
2022-10-28T22:37:29.131Z,57.94
2022-10-28T22:40:30.694Z,58.22
2022-10-28T22:43:32.535Z,58.00
2022-10-28T22:46:36.667Z,58.04
2022-10-28T22:49:38.279Z,58.08
2022-10-28T22:52:39.855Z,58.19
2022-10-28T22:55:41.382Z,58.32
2022-10-28T22:58:43.075Z,58.21
2022-10-28T23:01:44.677Z,58.27
2022-10-28T23:04:46.298Z,58.33
2022-10-28T23:07:47.837Z,58.25
2022-10-28T23:10:49.371Z,58.42
2022-10-28T23:13:52.881Z,58.40
2022-10-28T23:16:54.442Z,58.32
2022-10-28T23:19:55.992Z,58.45
2022-10-28T23:22:57.662Z,58.37
2022-10-28T23:25:59.454Z,58.41
2022-10-28T23:29:01.012Z,58.43
2022-10-28T23:32:02.544Z,58.50
2022-10-28T23:35:05.254Z,58.26
2022-10-28T23:38:09.079Z,58.40
2022-10-28T23:41:15.413Z,58.45
2022-10-28T23:44:17.070Z,58.47
2022-10-28T23:47:18.660Z,58.48
2022-10-28T23:50:20.197Z,58.44
2022-10-28T23:53:22.677Z,58.55
2022-10-28T23:56:24.291Z,58.47
2022-10-28T23:59:25.803Z,58.60
